LEGR/GRX METAR and TAF weather

Enter ICAO airport designator
Station Type Date Time Source
LEGR METAR 2020/12/05 05:30 UTC NOAA

LEGR 050530Z 26005KT 9999 FEW020 BKN030 03/02 Q1003


Station Type Date Time Source
LEGR Decoded METAR 2020/12/05 05:30 UTC NOAA

Granada / Aeropuerto, Spain (LEGR) 37-11N 003-47W 570M
Dec 05, 2020 - 12:30 AM EST / 2020.12.05 0530 UTC
Wind: from the W (260 degrees) at 6 MPH (5 KT):0
Visibility: greater than 7 mile(s):0
Sky conditions: mostly cloudy
Temperature: 37 F (3 C)
Dew Point: 35 F (2 C)
Relative Humidity: 93%
Pressure (altimeter): 29.62 in. Hg (1003 hPa)
ob: LEGR 050530Z 26005KT 9999 FEW020 BKN030 03/02 Q1003
cycle: 5

Station Type Date Time Source
LEGR TAF 2020/12/05 03:28 UTC NOAA

TAF LEGR 050200Z 0503/0603 26009KT 9999 FEW020 TX06/0514Z TN02/0504Z

Example: see airport list